createdAt,value
2018-07-12T00:02:07.024Z,17.73
2018-07-12T00:04:35.102Z,17.67
2018-07-12T00:07:02.954Z,17.00
2018-07-12T00:09:30.799Z,18.07
2018-07-12T00:11:58.645Z,18.07
2018-07-12T00:14:26.480Z,17.93
2018-07-12T00:16:54.337Z,18.30
2018-07-12T00:19:22.166Z,17.00
2018-07-12T00:21:50.028Z,17.30
2018-07-12T00:24:17.919Z,17.43
2018-07-12T00:26:45.799Z,19.07
2018-07-12T00:29:13.692Z,18.83
2018-07-12T00:31:41.623Z,20.23
2018-07-12T00:34:09.465Z,18.83
2018-07-12T00:36:37.285Z,20.03
2018-07-12T00:39:05.877Z,19.87
2018-07-12T00:41:33.738Z,24.50
2018-07-12T00:44:01.703Z,20.17
2018-07-12T00:46:29.543Z,20.63
2018-07-12T00:48:57.364Z,20.77
2018-07-12T00:51:25.459Z,20.83
2018-07-12T00:53:53.350Z,21.70
2018-07-12T00:56:21.203Z,21.47
2018-07-12T00:58:49.139Z,22.50
2018-07-12T01:01:16.953Z,22.17
2018-07-12T01:03:44.785Z,21.97
2018-07-12T01:06:12.725Z,22.53
2018-07-12T01:08:40.552Z,22.53
2018-07-12T01:11:08.401Z,22.30
2018-07-12T01:13:36.223Z,23.07
2018-07-12T01:16:04.070Z,23.20
2018-07-12T01:18:31.926Z,23.47
2018-07-12T01:20:59.747Z,24.07
2018-07-12T01:23:27.577Z,25.00
2018-07-12T01:25:55.879Z,25.37
2018-07-12T01:28:23.827Z,25.10
2018-07-12T01:30:51.649Z,24.90
2018-07-12T01:33:19.483Z,24.63
2018-07-12T01:35:47.299Z,25.50
2018-07-12T01:38:15.158Z,26.03
2018-07-12T01:40:42.967Z,25.10
2018-07-12T01:43:10.979Z,28.47
2018-07-12T01:45:38.892Z,25.97
2018-07-12T01:48:06.809Z,25.73
2018-07-12T01:50:34.746Z,27.10
2018-07-12T01:53:02.575Z,26.20
2018-07-12T01:55:30.419Z,27.90
2018-07-12T01:57:58.371Z,27.20
2018-07-12T02:00:26.419Z,27.47
2018-07-12T02:02:54.340Z,26.00
2018-07-12T02:05:22.187Z,26.80
2018-07-12T02:07:50.035Z,26.70
2018-07-12T02:10:17.897Z,26.13
2018-07-12T02:12:45.736Z,25.87
2018-07-12T02:15:13.575Z,25.87
2018-07-12T02:17:41.396Z,26.50
2018-07-12T02:20:09.227Z,25.77
2018-07-12T02:22:37.057Z,27.17
2018-07-12T02:25:04.918Z,28.00
2018-07-12T02:27:32.948Z,26.73
2018-07-12T02:30:00.850Z,26.83
2018-07-12T02:32:28.987Z,26.27
2018-07-12T02:34:57.252Z,28.37
2018-07-12T02:37:25.078Z,27.63
2018-07-12T02:39:52.899Z,27.67
2018-07-12T02:42:20.775Z,29.83
2018-07-12T02:44:48.683Z,29.40
2018-07-12T02:47:16.844Z,30.67
2018-07-12T02:49:44.763Z,30.00
2018-07-12T02:52:13.038Z,29.10
2018-07-12T02:54:40.962Z,30.23
2018-07-12T02:57:08.804Z,30.00
2018-07-12T02:59:36.634Z,30.03
2018-07-12T03:02:04.758Z,30.47
2018-07-12T03:04:32.593Z,32.10
2018-07-12T03:07:00.451Z,29.93
2018-07-12T03:09:28.275Z,30.87
2018-07-12T03:11:56.124Z,31.50
2018-07-12T03:14:23.990Z,31.20
2018-07-12T03:16:52.007Z,30.57
2018-07-12T03:19:19.848Z,31.53
2018-07-12T03:21:47.659Z,31.10
2018-07-12T03:24:15.650Z,29.73
2018-07-12T03:26:43.479Z,31.33
2018-07-12T03:29:11.371Z,29.53
2018-07-12T03:31:39.202Z,30.80
2018-07-12T03:34:07.584Z,30.80
2018-07-12T03:36:35.394Z,29.40
2018-07-12T03:39:03.415Z,29.87
